Time;durP1;ratioP1;P1;durP2;ratioP2;P2;SDS_P1;SDS_P2;PMS_P1;PMS_P2;Temp;Humidity;BMP_temperature;BMP_pressure;BME280_temperature;BME280_humidity;BME280_pressure;Samples;Min_cycle;Max_cycle;Signal;HPM_P1;HPM_P2
2023/01/10 00:01:58;;;;;;;0.00;0.00;;;5.30;99.90;;;;;;5014262;28;20182;-60
2023/01/10 00:04:25;;;;;;;0.00;0.00;;;5.30;99.90;;;;;;5014148;28;20214;-61
2023/01/10 00:06:51;;;;;;;0.00;0.00;;;5.30;99.90;;;;;;5014079;28;20202;-60
2023/01/10 00:09:16;;;;;;;0.00;0.00;;;5.30;99.90;;;;;;5013660;28;20178;-60
2023/01/10 00:14:28;;;;;;;0.00;0.00;;;5.30;99.90;;;;;;5013922;28;20660;-61
2023/01/10 00:16:54;;;;;;;0.00;0.00;;;5.40;99.90;;;;;;5013411;28;20183;-60
2023/01/10 00:19:20;;;;;;;0.00;0.00;;;5.40;99.90;;;;;;5013628;28;20641;-60
2023/01/10 00:21:45;;;;;;;0.00;0.00;;;5.40;99.90;;;;;;5013241;28;20664;-60
2023/01/10 00:24:21;;;;;;;0.00;0.00;;;5.40;99.90;;;;;;5002929;28;20221;-60
2023/01/10 00:26:51;;;;;;;0.00;0.00;;;5.40;99.90;;;;;;5013719;28;20646;-60
2023/01/10 00:29:22;;;;;;;0.00;0.00;;;5.40;99.90;;;;;;4996339;28;20548;-60
2023/01/10 00:31:48;;;;;;;0.00;0.00;;;5.40;99.90;;;;;;4994212;28;20266;-60
2023/01/10 00:34:14;;;;;;;0.00;0.00;;;5.40;99.90;;;;;;4976602;28;20599;-60
2023/01/10 00:36:40;;;;;;;0.00;0.00;;;5.40;99.90;;;;;;5011587;28;20183;-60
2023/01/10 00:39:06;;;;;;;0.00;0.00;;;5.40;99.90;;;;;;4996349;28;20178;-60
2023/01/10 00:44:16;;;;;;;0.00;0.00;;;5.40;99.90;;;;;;4993860;28;20793;-60
2023/01/10 00:46:41;;;;;;;0.00;0.00;;;5.40;99.90;;;;;;4993823;28;20271;-60
2023/01/10 00:49:07;;;;;;;0.00;0.00;;;5.40;99.90;;;;;;4993948;28;20184;-60
2023/01/10 00:51:33;;;;;;;0.00;0.00;;;5.40;99.90;;;;;;4993777;28;20605;-60
2023/01/10 00:53:59;;;;;;;0.00;0.00;;;5.40;99.90;;;;;;4993561;28;20361;-60
2023/01/10 00:56:24;;;;;;;0.00;0.00;;;5.50;99.90;;;;;;4999575;28;20195;-60
2023/01/10 00:58:50;;;;;;;0.00;0.00;;;5.50;99.90;;;;;;4995284;28;20261;-60
2023/01/10 01:01:15;;;;;;;0.00;0.00;;;5.50;99.90;;;;;;5012631;28;20210;-61
2023/01/10 01:03:41;;;;;;;0.00;0.00;;;5.50;99.90;;;;;;5013227;28;20227;-60
2023/01/10 01:06:07;;;;;;;0.00;0.00;;;5.50;99.90;;;;;;5012970;28;20634;-60
2023/01/10 01:08:33;;;;;;;0.00;0.00;;;5.50;99.90;;;;;;5012394;28;20261;-60
2023/01/10 01:10:58;;;;;;;0.00;0.00;;;5.50;99.90;;;;;;5012679;28;20191;-60
2023/01/10 01:13:24;;;;;;;0.00;0.00;;;5.50;99.90;;;;;;5005423;28;20179;-60
2023/01/10 01:15:50;;;;;;;0.00;0.00;;;5.50;99.90;;;;;;4993313;28;20263;-60
2023/01/10 01:18:19;;;;;;;0.00;0.00;;;5.50;99.90;;;;;;4999023;28;20215;-61
2023/01/10 01:20:46;;;;;;;0.00;0.00;;;5.50;99.90;;;;;;4993168;28;20218;-61
2023/01/10 01:23:15;;;;;;;0.00;0.00;;;5.60;99.90;;;;;;4993131;28;20211;-60
2023/01/10 01:25:41;;;;;;;0.00;0.00;;;5.50;99.90;;;;;;4993133;28;20179;-61
2023/01/10 01:28:07;;;;;;;0.00;0.00;;;5.60;99.90;;;;;;4993146;28;20226;-60
2023/01/10 01:30:32;;;;;;;0.00;0.00;;;5.60;99.90;;;;;;5007725;28;20536;-60
2023/01/10 01:32:58;;;;;;;0.00;0.00;;;5.60;99.90;;;;;;5012509;28;20174;-60
2023/01/10 01:35:24;;;;;;;0.00;0.00;;;5.50;99.90;;;;;;5012605;28;20179;-60
2023/01/10 01:37:49;;;;;;;0.00;0.00;;;5.50;99.90;;;;;;5011908;28;20179;-60
2023/01/10 01:40:17;;;;;;;0.00;0.00;;;5.50;99.90;;;;;;5011742;28;20662;-60
2023/01/10 01:42:44;;;;;;;0.00;0.00;;;5.50;99.90;;;;;;5011589;28;20217;-61
2023/01/10 01:45:31;;;;;;;0.00;0.00;;;5.50;99.90;;;;;;5006611;28;20546;-61
2023/01/10 01:48:06;;;;;;;0.00;0.00;;;5.50;99.90;;;;;;5010732;28;20310;-61
2023/01/10 01:50:50;;;;;;;0.00;0.00;;;5.40;99.90;;;;;;4992612;28;20521;-61
2023/01/10 01:53:29;;;;;;;0.00;0.00;;;5.50;99.90;;;;;;5003478;28;20233;-61
2023/01/10 01:55:59;;;;;;;0.00;0.00;;;5.40;99.90;;;;;;5012289;28;20182;-61
2023/01/10 01:58:38;;;;;;;0.00;0.00;;;5.40;99.90;;;;;;5012301;28;20182;-61
2023/01/10 02:01:04;;;;;;;0.00;0.00;;;5.40;99.90;;;;;;5012274;28;20751;-61
2023/01/10 02:03:30;;;;;;;0.00;0.00;;;5.30;99.90;;;;;;5012023;28;20976;-60
2023/01/10 02:05:56;;;;;;;0.00;0.00;;;5.30;99.90;;;;;;4996766;28;20210;-60
2023/01/10 02:08:22;;;;;;;0.00;0.00;;;5.30;99.90;;;;;;4992475;28;20646;-60
2023/01/10 02:11:07;;;;;;;0.00;0.00;;;5.30;99.90;;;;;;5004471;28;20187;-61
2023/01/10 02:13:37;;;;;;;0.00;0.00;;;5.30;99.90;;;;;;5011448;28;20178;-61
2023/01/10 02:16:03;;;;;;;0.00;0.00;;;5.30;99.90;;;;;;4996793;28;20180;-60
2023/01/10 02:18:28;;;;;;;0.00;0.00;;;5.30;99.90;;;;;;5006389;28;20189;-60
2023/01/10 02:21:05;;;;;;;0.00;0.00;;;5.30;99.90;;;;;;5011556;28;20186;-60
2023/01/10 02:24:04;;;;;;;0.00;0.00;;;5.40;99.90;;;;;;5011537;28;20569;-60
2023/01/10 02:26:49;;;;;;;0.00;0.00;;;5.30;99.90;;;;;;4997815;28;20646;-60
2023/01/10 02:29:51;;;;;;;0.00;0.00;;;5.30;99.90;;;;;;5011543;28;20178;-60
2023/01/10 02:32:21;;;;;;;0.00;0.00;;;5.30;99.90;;;;;;5006509;28;20232;-60
2023/01/10 02:35:08;;;;;;;0.00;0.00;;;5.30;99.90;;;;;;4992062;28;20176;-60
2023/01/10 02:37:49;;;;;;;0.00;0.00;;;5.30;99.90;;;;;;5006715;28;20209;-60
2023/01/10 02:40:36;;;;;;;0.00;0.00;;;5.30;99.90;;;;;;5011648;28;20384;-60
2023/01/10 02:43:31;;;;;;;0.00;0.00;;;5.30;99.90;;;;;;5011647;28;20207;-60
2023/01/10 02:46:09;;;;;;;0.00;0.00;;;5.30;99.90;;;;;;5002646;28;20249;-60
2023/01/10 02:48:35;;;;;;;0.00;0.00;;;5.30;99.90;;;;;;5006097;28;20201;-60
2023/01/10 02:51:17;;;;;;;0.00;0.00;;;5.20;99.90;;;;;;4992139;28;20179;-60
2023/01/10 02:53:55;;;;;;;0.00;0.00;;;5.30;99.90;;;;;;4995312;28;20732;-60
2023/01/10 02:56:43;;;;;;;0.00;0.00;;;5.30;99.90;;;;;;4978596;28;20278;-60
2023/01/10 02:59:26;;;;;;;0.00;0.00;;;5.20;99.90;;;;;;4995896;28;20239;-60
2023/01/10 03:02:13;;;;;;;0.00;0.00;;;5.20;99.90;;;;;;4995789;28;20186;-60
2023/01/10 03:04:47;;;;;;;0.00;0.00;;;5.20;99.90;;;;;;4995586;28;20296;-59
2023/01/10 03:07:34;;;;;;;0.00;0.00;;;5.20;99.90;;;;;;4995570;28;20540;-60
2023/01/10 03:10:27;;;;;;;0.00;0.00;;;5.20;99.90;;;;;;5001153;28;20352;-59
2023/01/10 03:13:09;;;;;;;0.00;0.00;;;5.20;99.90;;;;;;5007098;28;20179;-60
2023/01/10 03:15:37;;;;;;;0.00;0.00;;;5.20;99.90;;;;;;5014503;28;20189;-61
2023/01/10 03:18:09;;;;;;;0.00;0.00;;;5.20;99.90;;;;;;5014728;28;20285;-60
2023/01/10 03:20:36;;;;;;;0.00;0.00;;;5.20;99.90;;;;;;5014533;28;20175;-60
2023/01/10 03:23:04;;;;;;;0.00;0.00;;;5.20;99.90;;;;;;5014502;28;20242;-60
2023/01/10 03:25:33;;;;;;;0.00;0.00;;;5.20;99.90;;;;;;5014186;28;20195;-60
2023/01/10 03:28:24;;;;;;;0.00;0.00;;;5.20;99.90;;;;;;5014440;28;20665;-60
2023/01/10 03:30:56;;;;;;;0.00;0.00;;;5.20;99.90;;;;;;5006253;28;20646;-60
2023/01/10 03:33:26;;;;;;;0.00;0.00;;;5.20;99.90;;;;;;5013922;28;20317;-60
2023/01/10 03:36:25;;;;;;;0.00;0.00;;;5.10;99.90;;;;;;5014116;28;20175;-60
2023/01/10 03:39:10;;;;;;;0.00;0.00;;;5.20;99.90;;;;;;5009488;28;20198;-60
2023/01/10 03:41:46;;;;;;;0.00;0.00;;;5.10;99.90;;;;;;5014022;28;20179;-60
2023/01/10 03:47:08;;;;;;;0.00;0.00;;;5.10;99.90;;;;;;5005434;28;20208;-60
2023/01/10 03:49:38;;;;;;;0.00;0.00;;;5.00;99.90;;;;;;5013655;28;20206;-60
2023/01/10 03:52:04;;;;;;;0.00;0.00;;;5.00;99.90;;;;;;5014095;28;20540;-60
2023/01/10 03:54:30;;;;;;;0.00;0.00;;;4.90;99.90;;;;;;5013627;28;20621;-60
2023/01/10 03:56:56;;;;;;;0.00;0.00;;;4.90;99.90;;;;;;5013821;28;20243;-60
2023/01/10 03:59:25;;;;;;;0.10;0.10;;;4.90;99.90;;;;;;5013871;28;20665;-60
2023/01/10 04:01:51;;;;;;;0.00;0.00;;;4.80;99.90;;;;;;5014089;28;20237;-60
2023/01/10 04:04:17;;;;;;;0.00;0.00;;;4.80;99.90;;;;;;5012614;28;20567;-60
2023/01/10 04:06:43;;;;;;;0.00;0.00;;;4.80;99.90;;;;;;5013435;28;20171;-60
2023/01/10 04:09:09;;;;;;;0.00;0.00;;;4.70;99.90;;;;;;4996048;28;20186;-60
2023/01/10 04:11:35;;;;;;;0.00;0.00;;;4.70;99.90;;;;;;5013378;28;20183;-60
2023/01/10 04:14:00;;;;;;;0.00;0.00;;;4.70;99.90;;;;;;5013830;28;20236;-60
2023/01/10 04:16:26;;;;;;;0.00;0.00;;;4.60;99.90;;;;;;5013175;28;20179;-60
2023/01/10 04:18:51;;;;;;;0.00;0.00;;;4.60;99.90;;;;;;5013722;28;20273;-60
2023/01/10 04:21:17;;;;;;;0.00;0.00;;;4.60;99.90;;;;;;5013386;28;20182;-60
2023/01/10 04:23:42;;;;;;;0.00;0.00;;;4.60;99.90;;;;;;5013185;28;20272;-60
2023/01/10 04:26:08;;;;;;;0.00;0.00;;;4.60;99.90;;;;;;5013432;28;20186;-60
2023/01/10 04:28:33;;;;;;;0.00;0.00;;;4.50;99.90;;;;;;5005766;28;20661;-60
2023/01/10 04:30:59;;;;;;;0.00;0.00;;;4.50;99.90;;;;;;4992935;28;20179;-60
2023/01/10 04:33:24;;;;;;;0.05;0.05;;;4.50;99.90;;;;;;5008764;28;20186;-60
2023/01/10 04:35:51;;;;;;;0.10;0.10;;;4.50;99.90;;;;;;4994900;28;20230;-59
2023/01/10 04:38:17;;;;;;;0.00;0.00;;;4.50;99.90;;;;;;5005392;28;20186;-59
2023/01/10 04:40:43;;;;;;;0.00;0.00;;;4.50;99.90;;;;;;5011588;28;20262;-60
2023/01/10 04:43:10;;;;;;;0.00;0.00;;;4.50;99.90;;;;;;5011957;28;20306;-66
2023/01/10 04:45:36;;;;;;;0.00;0.00;;;4.50;99.90;;;;;;5011486;28;20170;-69
2023/01/10 04:48:02;;;;;;;0.00;0.00;;;4.50;99.90;;;;;;5012844;28;20187;-64
2023/01/10 04:50:27;;;;;;;0.00;0.00;;;4.50;99.90;;;;;;5012675;28;20186;-62
2023/01/10 04:52:53;;;;;;;0.00;0.00;;;4.50;99.90;;;;;;5010885;28;20201;-64
2023/01/10 04:55:19;;;;;;;0.00;0.00;;;4.50;99.90;;;;;;5012190;28;20214;-64
2023/01/10 04:57:44;;;;;;;0.10;0.10;;;4.50;99.90;;;;;;5012432;28;20187;-67
2023/01/10 05:00:11;;;;;;;0.00;0.00;;;4.50;99.90;;;;;;5012623;28;20211;-66
2023/01/10 05:02:42;;;;;;;0.00;0.00;;;4.50;99.90;;;;;;5012039;28;20569;-66
2023/01/10 05:05:09;;;;;;;0.00;0.00;;;4.50;99.90;;;;;;5012521;28;20187;-63
2023/01/10 05:07:36;;;;;;;0.00;0.00;;;4.50;99.90;;;;;;5011706;28;20270;-64
2023/01/10 05:10:03;;;;;;;0.00;0.00;;;4.60;99.90;;;;;;5010665;28;20198;-66
2023/01/10 05:12:28;;;;;;;0.00;0.00;;;4.60;99.90;;;;;;5012441;28;20178;-65
2023/01/10 05:14:54;;;;;;;0.10;0.00;;;4.60;99.90;;;;;;5008580;28;20656;-63
2023/01/10 05:17:19;;;;;;;0.00;0.00;;;4.60;99.90;;;;;;4994187;28;20183;-64
2023/01/10 05:19:45;;;;;;;0.00;0.00;;;4.60;99.90;;;;;;5012548;28;20670;-62
2023/01/10 05:22:10;;;;;;;0.20;0.20;;;4.60;99.90;;;;;;5012295;28;20186;-63
2023/01/10 05:24:36;;;;;;;0.00;0.00;;;4.60;99.90;;;;;;5011539;28;20221;-65
2023/01/10 05:27:02;;;;;;;0.00;0.00;;;4.70;99.90;;;;;;5012721;28;20689;-64
2023/01/10 05:29:27;;;;;;;0.00;0.00;;;4.70;99.90;;;;;;5012517;28;20183;-64
2023/01/10 05:31:53;;;;;;;0.00;0.00;;;4.70;99.90;;;;;;5012618;28;20212;-64
2023/01/10 05:34:19;;;;;;;0.00;0.00;;;4.80;99.90;;;;;;5012591;28;20170;-63
2023/01/10 05:36:44;;;;;;;0.00;0.00;;;4.80;99.90;;;;;;5012587;28;20183;-65
2023/01/10 05:39:10;;;;;;;0.00;0.00;;;4.80;99.90;;;;;;5012588;28;20171;-64
2023/01/10 05:41:36;;;;;;;0.00;0.00;;;4.90;99.90;;;;;;5012431;28;20179;-64
2023/01/10 05:44:02;;;;;;;0.00;0.00;;;4.90;99.90;;;;;;4994302;28;20250;-64
2023/01/10 05:46:27;;;;;;;0.00;0.00;;;4.90;99.90;;;;;;5012414;28;20181;-64
2023/01/10 05:48:53;;;;;;;0.00;0.00;;;4.90;99.90;;;;;;5012506;28;20716;-64
2023/01/10 05:51:18;;;;;;;0.00;0.00;;;4.90;99.90;;;;;;5012464;28;20174;-64
2023/01/10 05:53:44;;;;;;;0.00;0.00;;;4.90;99.90;;;;;;5012018;28;20719;-64
2023/01/10 05:56:09;;;;;;;0.00;0.00;;;4.90;99.90;;;;;;5012295;28;20185;-64
2023/01/10 05:58:35;;;;;;;0.00;0.00;;;4.90;99.90;;;;;;5012245;28;20179;-64
2023/01/10 06:01:00;;;;;;;0.00;0.00;;;4.90;99.90;;;;;;5012165;28;20170;-64
2023/01/10 06:03:26;;;;;;;0.00;0.00;;;5.00;99.90;;;;;;5012156;28;20222;-64
2023/01/10 06:05:56;;;;;;;0.00;0.00;;;5.00;99.90;;;;;;5012314;28;20202;-64
2023/01/10 06:08:22;;;;;;;0.00;0.00;;;5.00;99.90;;;;;;5012256;28;20175;-64
2023/01/10 06:10:48;;;;;;;0.00;0.00;;;4.90;99.90;;;;;;5012260;28;20187;-64
2023/01/10 06:13:14;;;;;;;0.00;0.00;;;5.00;99.90;;;;;;5012126;28;20269;-64
2023/01/10 06:15:39;;;;;;;0.00;0.00;;;4.90;99.90;;;;;;4994583;28;20174;-64
2023/01/10 06:18:05;;;;;;;0.00;0.00;;;5.00;99.90;;;;;;5012042;28;20229;-64
2023/01/10 06:20:31;;;;;;;0.00;0.00;;;4.90;99.90;;;;;;5011767;28;20183;-64
2023/01/10 06:22:57;;;;;;;0.00;0.00;;;5.00;99.90;;;;;;5012091;28;20252;-64
2023/01/10 06:25:23;;;;;;;0.00;0.00;;;5.00;99.90;;;;;;5012074;28;20178;-64
2023/01/10 06:27:48;;;;;;;0.00;0.00;;;5.00;99.90;;;;;;5015786;28;20170;-64
2023/01/10 06:30:14;;;;;;;0.00;0.00;;;5.00;99.90;;;;;;5000804;28;20175;-64
2023/01/10 06:32:41;;;;;;;0.00;0.00;;;5.00;99.90;;;;;;5018429;28;20171;-64
2023/01/10 06:35:07;;;;;;;0.00;0.00;;;5.00;99.90;;;;;;5018478;28;20221;-64
2023/01/10 06:37:33;;;;;;;0.00;0.00;;;5.00;99.90;;;;;;5018226;28;20190;-64
2023/01/10 06:39:58;;;;;;;0.00;0.00;;;5.00;99.90;;;;;;5018462;28;20218;-64
2023/01/10 06:42:24;;;;;;;0.00;0.00;;;5.00;99.90;;;;;;5018222;28;20175;-64
2023/01/10 06:44:49;;;;;;;0.00;0.00;;;5.00;99.90;;;;;;5018004;28;20214;-64
2023/01/10 06:47:15;;;;;;;0.00;0.00;;;5.00;99.90;;;;;;5018247;28;20207;-64
2023/01/10 06:49:40;;;;;;;0.00;0.00;;;5.00;99.90;;;;;;5018072;28;20191;-64
2023/01/10 06:52:06;;;;;;;0.00;0.00;;;5.00;99.90;;;;;;5018286;28;20261;-64
2023/01/10 06:54:31;;;;;;;0.00;0.00;;;5.00;99.90;;;;;;5017943;28;20279;-64
2023/01/10 06:56:57;;;;;;;0.00;0.00;;;5.00;99.90;;;;;;5018213;28;20174;-64
2023/01/10 06:59:22;;;;;;;0.00;0.00;;;5.00;99.90;;;;;;5018218;28;20166;-64
2023/01/10 07:01:48;;;;;;;0.00;0.00;;;5.00;99.90;;;;;;5018294;28;20593;-64
2023/01/10 07:04:14;;;;;;;0.00;0.00;;;5.00;99.90;;;;;;5018131;28;20213;-64
2023/01/10 07:06:40;;;;;;;0.00;0.00;;;5.00;99.90;;;;;;5018042;28;20182;-64
2023/01/10 07:09:06;;;;;;;0.00;0.00;;;5.00;99.90;;;;;;5018314;28;20546;-64
2023/01/10 07:11:34;;;;;;;0.00;0.00;;;5.10;99.90;;;;;;5017819;28;20257;-64
2023/01/10 07:14:00;;;;;;;0.00;0.00;;;5.00;99.90;;;;;;5018146;28;20582;-64
2023/01/10 07:16:25;;;;;;;0.00;0.00;;;5.10;99.90;;;;;;5018053;28;20167;-64
2023/01/10 07:18:51;;;;;;;0.00;0.00;;;5.10;99.90;;;;;;5017906;28;20178;-64
2023/01/10 07:21:18;;;;;;;0.30;0.08;;;5.00;99.90;;;;;;5017974;28;20171;-64
2023/01/10 07:23:48;;;;;;;0.00;0.00;;;5.10;99.90;;;;;;5017946;28;20216;-64
2023/01/10 07:26:16;;;;;;;0.00;0.00;;;5.10;99.90;;;;;;5018120;28;20258;-64
2023/01/10 07:28:43;;;;;;;0.00;0.00;;;5.10;99.90;;;;;;5017954;28;20171;-64
2023/01/10 07:31:09;;;;;;;0.00;0.00;;;5.10;99.90;;;;;;5017987;28;20198;-64
2023/01/10 07:33:34;;;;;;;0.00;0.00;;;5.10;99.90;;;;;;5017937;28;20175;-64
2023/01/10 07:36:01;;;;;;;0.00;0.00;;;5.10;99.90;;;;;;5018141;28;20262;-64
2023/01/10 07:38:27;;;;;;;0.00;0.00;;;5.10;99.90;;;;;;5016416;28;20180;-64
2023/01/10 07:40:52;;;;;;;0.00;0.00;;;5.10;99.90;;;;;;5014676;28;20202;-64
2023/01/10 07:43:18;;;;;;;0.00;0.00;;;5.10;99.90;;;;;;5014829;28;20559;-64
2023/01/10 07:45:43;;;;;;;0.00;0.00;;;5.20;99.90;;;;;;5014788;28;20500;-64
2023/01/10 07:48:09;;;;;;;0.00;0.00;;;5.10;99.90;;;;;;5014738;28;20225;-64
2023/01/10 07:50:35;;;;;;;0.00;0.00;;;5.10;99.90;;;;;;5014699;28;20260;-64
2023/01/10 07:53:03;;;;;;;0.00;0.00;;;5.10;99.90;;;;;;5014408;28;20175;-64
2023/01/10 07:55:29;;;;;;;0.00;0.00;;;5.10;99.90;;;;;;5014593;28;20285;-64
2023/01/10 07:57:55;;;;;;;0.00;0.00;;;5.10;99.90;;;;;;5014731;28;20198;-64
2023/01/10 08:00:21;;;;;;;0.00;0.00;;;5.10;99.90;;;;;;5014647;28;20273;-64
2023/01/10 08:02:47;;;;;;;0.00;0.00;;;5.10;99.90;;;;;;5014436;28;20278;-64
2023/01/10 08:05:13;;;;;;;0.00;0.00;;;5.20;99.90;;;;;;5014460;28;20632;-64
2023/01/10 08:07:39;;;;;;;0.00;0.00;;;5.20;99.90;;;;;;5014443;28;20171;-64
2023/01/10 08:10:05;;;;;;;0.00;0.00;;;5.20;99.90;;;;;;5014329;28;20206;-64
2023/01/10 08:12:31;;;;;;;0.00;0.00;;;5.20;99.90;;;;;;4996869;28;20190;-64
2023/01/10 08:14:57;;;;;;;0.10;0.10;;;5.30;99.90;;;;;;4994784;28;20539;-64
2023/01/10 08:17:23;;;;;;;0.00;0.00;;;5.20;99.90;;;;;;5000390;28;20177;-64
2023/01/10 08:19:49;;;;;;;0.00;0.00;;;5.20;99.90;;;;;;5013863;28;20189;-64
2023/01/10 08:22:14;;;;;;;0.00;0.00;;;5.20;99.90;;;;;;5014004;28;20190;-64
2023/01/10 08:24:40;;;;;;;0.00;0.00;;;5.20;99.90;;;;;;5013953;28;20218;-64
2023/01/10 08:27:05;;;;;;;0.00;0.00;;;5.20;99.90;;;;;;5013960;28;20699;-64
2023/01/10 08:29:31;;;;;;;0.00;0.00;;;5.30;99.90;;;;;;5013829;28;20179;-64
2023/01/10 08:31:56;;;;;;;0.00;0.00;;;5.30;99.90;;;;;;5013886;28;20175;-64
2023/01/10 08:34:23;;;;;;;0.15;0.15;;;5.40;99.90;;;;;;5013819;28;20656;-64
2023/01/10 08:36:53;;;;;;;0.00;0.00;;;5.40;99.90;;;;;;5013823;28;20186;-64
2023/01/10 08:39:21;;;;;;;0.00;0.00;;;5.40;99.90;;;;;;5013836;28;20634;-64
2023/01/10 08:41:47;;;;;;;0.00;0.00;;;5.50;99.90;;;;;;5013743;28;20183;-64
2023/01/10 08:44:14;;;;;;;0.00;0.00;;;5.50;99.90;;;;;;5013633;28;20218;-64
2023/01/10 08:46:40;;;;;;;0.00;0.00;;;5.50;99.90;;;;;;5013675;28;20175;-64
2023/01/10 08:49:06;;;;;;;0.00;0.00;;;5.50;99.90;;;;;;5013618;28;20206;-64
2023/01/10 08:51:32;;;;;;;0.00;0.00;;;5.50;99.90;;;;;;5013337;28;20582;-64
2023/01/10 08:53:57;;;;;;;0.00;0.00;;;5.50;99.90;;;;;;5013394;28;20324;-64
2023/01/10 08:56:23;;;;;;;0.10;0.10;;;5.50;99.90;;;;;;5013378;28;20217;-64
2023/01/10 08:58:48;;;;;;;0.13;0.10;;;5.60;99.90;;;;;;5013237;28;20191;-64
2023/01/10 09:01:14;;;;;;;0.00;0.00;;;5.60;99.90;;;;;;5013439;28;20179;-64
2023/01/10 09:03:39;;;;;;;0.00;0.00;;;5.60;99.90;;;;;;5013164;28;20206;-64
2023/01/10 09:06:07;;;;;;;0.10;0.10;;;5.70;99.90;;;;;;5013412;28;20171;-64
2023/01/10 09:08:32;;;;;;;0.00;0.00;;;5.70;99.90;;;;;;4995454;28;20183;-64
2023/01/10 09:10:59;;;;;;;0.00;0.00;;;5.80;99.90;;;;;;5008631;28;20176;-64
2023/01/10 09:13:25;;;;;;;0.10;0.10;;;5.80;99.90;;;;;;4993623;28;20211;-64
2023/01/10 09:15:51;;;;;;;0.00;0.00;;;5.90;99.90;;;;;;4993381;28;20262;-64
2023/01/10 09:18:17;;;;;;;0.00;0.00;;;5.90;99.90;;;;;;5006963;28;20175;-64
2023/01/10 09:20:44;;;;;;;0.00;0.00;;;6.00;99.90;;;;;;5012839;28;20181;-64
2023/01/10 09:23:16;;;;;;;0.00;0.00;;;6.00;99.90;;;;;;5012717;28;20203;-64
2023/01/10 09:25:42;;;;;;;0.00;0.00;;;6.10;99.90;;;;;;5012870;28;20183;-64
2023/01/10 09:28:08;;;;;;;0.10;0.10;;;6.10;99.90;;;;;;5012827;28;20175;-64
2023/01/10 09:30:34;;;;;;;0.00;0.00;;;6.10;99.90;;;;;;5012650;28;20697;-64
2023/01/10 09:33:00;;;;;;;0.00;0.00;;;6.00;99.90;;;;;;5012854;28;20183;-64
2023/01/10 09:35:27;;;;;;;0.10;0.10;;;6.10;99.90;;;;;;5012631;28;20185;-64
2023/01/10 09:37:54;;;;;;;0.00;0.00;;;6.20;99.90;;;;;;5012633;28;20568;-64
2023/01/10 09:40:37;;;;;;;0.00;0.00;;;6.40;99.90;;;;;;5012648;28;20174;-64
2023/01/10 09:43:24;;;;;;;0.00;0.00;;;6.70;99.90;;;;;;5012582;28;20199;-64
2023/01/10 09:46:17;;;;;;;0.00;0.00;;;6.80;99.90;;;;;;5012549;28;20183;-64
2023/01/10 09:48:58;;;;;;;0.00;0.00;;;6.90;99.90;;;;;;5012412;28;20313;-64
2023/01/10 09:51:47;;;;;;;0.00;0.00;;;7.10;99.90;;;;;;5012490;28;20171;-64
2023/01/10 09:54:24;;;;;;;0.00;0.00;;;7.20;99.90;;;;;;5012253;28;20230;-64
2023/01/10 09:56:51;;;;;;;0.00;0.00;;;7.20;99.90;;;;;;5012251;28;20257;-64
2023/01/10 09:59:21;;;;;;;0.00;0.00;;;7.20;99.90;;;;;;5012416;28;20178;-64
2023/01/10 10:01:52;;;;;;;0.00;0.00;;;7.10;99.90;;;;;;5011739;28;20193;-64
2023/01/10 10:04:35;;;;;;;0.00;0.00;;;7.00;99.90;;;;;;5012274;28;20623;-64
2023/01/10 10:07:03;;;;;;;0.00;0.00;;;6.90;99.90;;;;;;4994729;28;20265;-63
2023/01/10 10:09:31;;;;;;;0.15;0.15;;;6.80;99.90;;;;;;5011942;28;20759;-63
2023/01/10 10:11:59;;;;;;;0.00;0.00;;;6.80;99.90;;;;;;5012134;28;20179;-63
2023/01/10 10:14:41;;;;;;;0.00;0.00;;;6.70;99.90;;;;;;5012012;28;20178;-63
2023/01/10 10:17:29;;;;;;;0.00;0.00;;;6.70;99.90;;;;;;5012002;28;20190;-64
2023/01/10 10:20:14;;;;;;;0.00;0.00;;;6.60;99.90;;;;;;5012248;28;20183;-64
2023/01/10 10:22:58;;;;;;;0.00;0.00;;;6.70;99.90;;;;;;5011957;28;20209;-64
2023/01/10 10:25:42;;;;;;;0.00;0.00;;;6.60;99.90;;;;;;5012169;28;20193;-64
2023/01/10 10:28:34;;;;;;;0.00;0.00;;;6.70;99.90;;;;;;5012234;28;20183;-64
2023/01/10 10:31:08;;;;;;;0.00;0.00;;;6.70;99.90;;;;;;5012166;28;20179;-64
2023/01/10 10:34:00;;;;;;;0.00;0.00;;;6.80;99.90;;;;;;5012016;28;20170;-64
2023/01/10 10:36:34;;;;;;;0.05;0.05;;;6.80;99.90;;;;;;5011869;28;20637;-64
2023/01/10 10:39:01;;;;;;;0.00;0.00;;;6.90;99.90;;;;;;5011992;28;20178;-64
2023/01/10 10:41:31;;;;;;;0.00;0.00;;;6.80;99.90;;;;;;5011959;28;20183;-64
2023/01/10 10:44:02;;;;;;;0.00;0.00;;;6.80;99.90;;;;;;5011941;28;20242;-64
2023/01/10 10:46:29;;;;;;;0.00;0.00;;;6.80;99.90;;;;;;5011891;28;20175;-64
2023/01/10 10:49:02;;;;;;;0.00;0.00;;;6.80;99.90;;;;;;5012041;28;20220;-64
2023/01/10 10:51:58;;;;;;;0.00;0.00;;;6.80;99.90;;;;;;5011923;28;20182;-64
2023/01/10 10:54:24;;;;;;;0.00;0.00;;;6.90;99.90;;;;;;4991159;28;20233;-64
2023/01/10 10:56:51;;;;;;;0.00;0.00;;;6.80;99.90;;;;;;5011694;28;20186;-64
2023/01/10 10:59:18;;;;;;;0.00;0.00;;;6.80;99.90;;;;;;5011912;28;20174;-64
2023/01/10 11:01:49;;;;;;;0.00;0.00;;;6.80;99.90;;;;;;5011815;28;20179;-64
2023/01/10 11:04:19;;;;;;;0.00;0.00;;;6.80;99.90;;;;;;5011698;28;20588;-64
2023/01/10 11:06:48;;;;;;;0.05;0.05;;;6.70;99.90;;;;;;5011608;28;20230;-64
2023/01/10 11:09:37;;;;;;;0.00;0.00;;;6.70;99.90;;;;;;5011683;28;20183;-64
2023/01/10 11:12:04;;;;;;;0.00;0.00;;;6.80;99.90;;;;;;4992129;28;20187;-63
2023/01/10 11:14:45;;;;;;;0.00;0.00;;;6.80;99.90;;;;;;4993373;28;20199;-63
2023/01/10 11:17:24;;;;;;;0.00;0.00;;;6.90;99.90;;;;;;5000166;28;20171;-63
2023/01/10 11:19:59;;;;;;;0.00;0.00;;;6.90;99.90;;;;;;5015334;28;20202;-63
2023/01/10 11:22:28;;;;;;;0.00;0.00;;;6.90;99.90;;;;;;5015326;28;20178;-63
2023/01/10 11:24:57;;;;;;;0.00;0.00;;;6.90;99.90;;;;;;5015017;28;20592;-63
2023/01/10 11:27:26;;;;;;;0.00;0.00;;;6.90;99.90;;;;;;5015234;28;20170;-63
2023/01/10 11:30:06;;;;;;;0.00;0.00;;;7.00;99.90;;;;;;5014975;28;20178;-63
2023/01/10 11:32:48;;;;;;;0.00;0.00;;;7.00;99.90;;;;;;5014968;28;20174;-63
2023/01/10 11:35:22;;;;;;;0.00;0.00;;;7.00;99.90;;;;;;5015060;28;20175;-63
2023/01/10 11:38:17;;;;;;;0.00;0.00;;;7.00;99.90;;;;;;5015046;28;20166;-63
2023/01/10 11:41:05;;;;;;;0.00;0.00;;;7.00;99.90;;;;;;5014976;28;20269;-63
2023/01/10 11:43:39;;;;;;;0.00;0.00;;;7.00;99.90;;;;;;5014570;28;20537;-63
2023/01/10 11:46:26;;;;;;;0.00;0.00;;;7.00;99.90;;;;;;5014867;28;20234;-63
2023/01/10 11:48:58;;;;;;;0.10;0.10;;;7.00;99.90;;;;;;4997464;28;20283;-63
2023/01/10 11:51:32;;;;;;;0.00;0.00;;;7.00;99.90;;;;;;5014750;28;20182;-63
2023/01/10 11:54:03;;;;;;;0.00;0.00;;;7.10;99.90;;;;;;5014561;28;20789;-63
2023/01/10 11:56:35;;;;;;;0.00;0.00;;;7.10;99.90;;;;;;5014471;28;20218;-63
2023/01/10 11:59:11;;;;;;;0.00;0.00;;;7.10;99.90;;;;;;5014617;28;20222;-64
2023/01/10 12:01:52;;;;;;;0.00;0.00;;;7.10;99.90;;;;;;5014535;28;20192;-64
2023/01/10 12:04:19;;;;;;;0.00;0.00;;;7.20;99.90;;;;;;5014526;28;20302;-63
2023/01/10 12:06:52;;;;;;;0.00;0.00;;;7.40;99.90;;;;;;5014392;28;20210;-63
2023/01/10 12:09:42;;;;;;;0.00;0.00;;;7.40;99.90;;;;;;5014246;28;20175;-63
2023/01/10 12:12:24;;;;;;;0.00;0.00;;;7.40;99.90;;;;;;4994920;28;20188;-63
2023/01/10 12:14:50;;;;;;;0.13;0.08;;;7.30;99.90;;;;;;4994601;28;20176;-63
2023/01/10 12:17:26;;;;;;;0.00;0.00;;;7.30;99.90;;;;;;4999922;28;20705;-63
2023/01/10 12:19:55;;;;;;;0.00;0.00;;;7.30;99.90;;;;;;5014056;28;20656;-63
2023/01/10 12:22:27;;;;;;;0.00;0.00;;;7.30;99.90;;;;;;5014292;28;20187;-63
2023/01/10 12:24:54;;;;;;;0.00;0.00;;;7.30;99.90;;;;;;5013579;28;20226;-63
2023/01/10 12:27:21;;;;;;;0.00;0.00;;;7.40;99.90;;;;;;5014062;28;20643;-63
2023/01/10 12:30:04;;;;;;;0.00;0.00;;;7.40;99.90;;;;;;4996457;28;20511;-63
2023/01/10 12:32:37;;;;;;;0.00;0.00;;;7.40;99.90;;;;;;5013829;28;20171;-63
2023/01/10 12:35:09;;;;;;;0.00;0.00;;;7.40;99.90;;;;;;5014018;28;20175;-63
2023/01/10 12:37:50;;;;;;;0.00;0.00;;;7.40;99.90;;;;;;5013904;28;20191;-63
2023/01/10 12:40:16;;;;;;;0.00;0.00;;;7.40;99.90;;;;;;5014009;28;20175;-63
2023/01/10 12:45:58;;;;;;;0.00;0.00;;;7.70;99.90;;;;;;5013741;28;20194;-63
2023/01/10 12:48:39;;;;;;;0.00;0.00;;;7.70;99.90;;;;;;5013563;28;20175;-64
2023/01/10 12:51:10;;;;;;;0.08;0.08;;;7.60;99.90;;;;;;5013635;28;20266;-63
2023/01/10 12:53:44;;;;;;;0.00;0.00;;;7.60;99.90;;;;;;5013353;28;20236;-63
2023/01/10 12:56:13;;;;;;;0.00;0.00;;;7.60;99.90;;;;;;5013501;28;20254;-63
2023/01/10 12:58:42;;;;;;;0.00;0.00;;;7.70;99.90;;;;;;4995849;28;20175;-63
2023/01/10 13:01:12;;;;;;;0.00;0.00;;;7.70;99.90;;;;;;5013499;28;20249;-63
2023/01/10 13:03:38;;;;;;;0.00;0.00;;;7.80;99.90;;;;;;5013331;28;20257;-63
2023/01/10 13:06:04;;;;;;;0.00;0.00;;;7.70;99.90;;;;;;5013331;28;20541;-63
2023/01/10 13:08:36;;;;;;;0.00;0.00;;;7.70;99.90;;;;;;5013094;28;20167;-63
2023/01/10 13:11:03;;;;;;;0.00;0.00;;;7.70;99.90;;;;;;5004855;28;20191;-63
2023/01/10 13:13:39;;;;;;;0.00;0.00;;;7.70;99.90;;;;;;4993325;28;20311;-64
2023/01/10 13:16:27;;;;;;;0.00;0.00;;;7.80;99.90;;;;;;4993440;28;20202;-63
2023/01/10 13:19:22;;;;;;;0.00;0.00;;;7.90;99.90;;;;;;5011508;28;20182;-63
2023/01/10 13:21:48;;;;;;;0.00;0.00;;;7.90;99.90;;;;;;5012954;28;20179;-64
2023/01/10 13:24:26;;;;;;;0.63;0.63;;;7.90;99.90;;;;;;5012791;28;20567;-64
2023/01/10 13:26:57;;;;;;;0.00;0.00;;;7.90;99.90;;;;;;5012809;28;20259;-64